Latest Weather Observations for Maria Island

IDT60801

Issued at 6:31 pm EST Thursday 30 June 2016 (issued every 30 minutes, with the page automatically refreshed every 10 minutes)

About weather observations | Map of weather stations | Latest weather observations for TAS | Other Formats
Station Details ID: 092124 Name: MARIA ISLAND (POINT LESUEUR) Lat: -42.66 Lon: 148.02 Height: 28.0 m
Data from the previous 72 hours. | See also: Recent months at Maria Island
Date/Time
EST
Temp
°C
App
Temp
°C
Dew
Point
°C
Rel
Hum
%
Delta-T
°C
Wind Press
QNH
hPa
Press
MSL
hPa
Rain since
9am
mm
Dir  Spd
km/h
Gust
km/h
Spd
kts
Gust
kts
30/06:30pm 11.4 - - - - N 39 44 21 24 1002.6 1002.6 0.0
30/06:00pm 11.4 - - - - N 43 50 23 27 1002.0 1002.0 0.0
30/05:30pm 11.6 - - - - N 43 48 23 26 1001.6 1001.6 0.0
30/05:00pm 11.8 - - - - N 39 44 21 24 1001.4 1001.4 0.0
30/04:30pm 11.7 - - - - N 33 41 18 22 1001.6 1001.6 0.0
30/04:00pm 11.6 - - - - N 43 50 23 27 1001.5 1001.5 0.0
30/03:30pm 11.6 - - - - NNW 50 61 27 33 1001.3 1001.3 0.0
30/03:00pm 11.9 - - - - N 57 69 31 37 1000.9 1000.9 0.0
30/02:54pm 12.0 - - - - N 48 69 26 37 1000.8 1000.8 0.0
30/02:30pm 12.0 - - - - N 44 52 24 28 1001.3 1001.3 0.0
30/02:00pm 12.0 - - - - N 46 52 25 28 1001.0 1001.0 0.0
30/01:30pm 12.0 - - - - N 44 52 24 28 1001.6 1001.6 0.0
30/01:00pm 11.9 - - - - N 46 54 25 29 1001.8 1001.8 0.0
30/12:30pm 11.6 - - - - NNE 37 43 20 23 1003.0 1003.0 0.0
30/12:00pm 11.7 - - - - N 39 46 21 25 1003.8 1003.8 0.0
30/11:30am 11.5 - - - - NNE 41 50 22 27 1004.3 1004.3 0.0
30/11:00am 11.6 - - - - N 48 57 26 31 1004.4 1004.4 0.0
30/10:30am 11.6 - - - - NNE 48 59 26 32 1004.9 1004.9 0.0
30/10:00am 12.0 - - - - N 50 59 27 32 1005.2 1005.2 0.0
30/09:30am 11.9 - - - - N 54 63 29 34 1005.0 1005.0 0.0
30/09:00am 12.2 - - - - N 52 59 28 32 1005.6 1005.6 0.0
30/08:30am 12.2 - - - - N 44 54 24 29 1006.1 1006.1 0.0
30/08:00am 12.1 - - - - N 50 57 27 31 1006.2 1006.2 0.0
30/07:30am 12.1 - - - - N 43 52 23 28 1007.2 1007.2 0.0
30/07:00am 12.0 - - - - N 52 61 28 33 1007.1 1007.1 0.0
30/06:30am 11.8 - - - - N 48 59 26 32 1007.6 1007.6 0.0
30/06:00am 11.5 - - - - NNW 39 50 21 27 1008.3 1008.3 0.0
30/05:54am 11.5 - - - - N 32 50 17 27 1008.2 1008.2 0.0
30/05:30am 11.0 - - - - N 39 46 21 25 1008.6 1008.6 0.0
30/05:00am 11.7 - - - - N 48 57 26 31 1008.7 1008.7 0.0
30/04:30am 11.9 - - - - N 44 59 24 32 1008.5 1008.5 0.0
30/04:00am 11.8 - - - - N 43 52 23 28 1009.3 1009.3 0.0
30/03:30am 11.9 - - - - N 43 50 23 27 1010.2 1010.2 0.0
30/03:16am 12.1 - - - - N 39 61 21 33 1010.4 1010.4 0.0
30/03:00am 12.1 - - - - N 37 46 20 25 1010.8 1010.8 0.0
30/02:30am 12.1 - - - - N 35 44 19 24 1011.2 1011.2 0.0
30/02:00am 12.2 - - - - N 37 46 20 25 1011.6 1011.6 0.0
30/01:30am 12.2 - - - - N 30 35 16 19 1012.0 1012.0 0.0
30/01:00am 12.0 - - - - N 28 37 15 20 1012.8 1012.8 0.0
30/12:30am 12.1 - - - - N 39 46 21 25 1013.0 1013.0 0.0
30/12:00am 11.9 - - - - N 30 37 16 20 1013.9 1013.9 0.0
 
Date/Time
EST
Temp
°C
App
Temp
°C
Dew
Point
°C
Rel
Hum
%
Delta-T
°C
Wind Press
QNH
hPa
Press
MSL
hPa
Rain since
9am
mm
Dir  Spd
km/h
Gust
km/h
Spd
kts
Gust
kts
29/11:30pm 11.8 - - - - N 20 30 11 16 1014.4 1014.4 0.0
29/11:00pm 12.0 - - - - N 26 33 14 18 1014.7 1014.7 0.0
29/10:30pm 12.1 - - - - NNW 24 35 13 19 1015.0 1015.0 0.0
29/10:00pm 11.9 - - - - N 20 26 11 14 1015.5 1015.5 0.0
29/09:30pm 11.7 - - - - N 19 22 10 12 1015.8 1015.8 0.0
29/09:00pm 11.3 - - - - N 13 17 7 9 1016.3 1016.3 0.0
29/08:30pm 11.7 - - - - N 17 20 9 11 1016.6 1016.6 0.0
29/08:00pm 11.9 - - - - N 22 24 12 13 1016.9 1016.9 0.0
29/07:30pm 12.2 - - - - N 24 32 13 17 1016.8 1016.8 0.0
29/07:00pm 12.3 - - - - N 22 26 12 14 1017.0 1017.0 0.0
29/06:30pm 12.5 - - - - N 20 22 11 12 1017.2 1017.2 0.0
29/06:00pm 12.3 - - - - N 15 20 8 11 1017.3 1017.3 0.0
29/05:30pm 11.9 - - - - N 11 13 6 7 1017.3 1017.3 0.0
29/05:00pm 12.6 - - - - N 17 20 9 11 1017.4 1017.4 0.0
29/04:30pm 12.7 - - - - N 11 13 6 7 1017.7 1017.7 0.0
29/04:00pm 12.7 - - - - N 11 13 6 7 1017.7 1017.7 0.0
29/03:30pm 12.6 - - - - N 17 20 9 11 1017.7 1017.7 0.0
29/03:00pm 12.9 - - - - N 20 24 11 13 1017.6 1017.6 0.0
29/02:30pm 12.5 - - - - N 20 24 11 13 1017.7 1017.7 0.0
29/02:00pm 12.7 - - - - N 15 17 8 9 1017.9 1017.9 0.0
29/01:30pm 12.5 - - - - N 11 15 6 8 1018.2 1018.2 0.0
29/01:00pm 12.6 - - - - WNW 11 15 6 8 1018.4 1018.4 0.0
29/12:30pm 12.9 - - - - WNW 11 15 6 8 1018.8 1018.8 0.0
29/12:00pm 12.2 - - - - WNW 28 32 15 17 1019.0 1019.0 0.0
29/11:30am 11.6 - - - - WNW 19 24 10 13 1019.5 1019.5 0.0
29/11:00am 11.8 - - - - N 15 20 8 11 1019.9 1019.9 0.0
29/10:30am 11.9 - - - - NW 7 11 4 6 1020.1 1020.1 0.0
29/10:00am 10.9 - - - - WNW 24 28 13 15 1019.8 1019.8 0.0
29/09:30am 10.9 - - - - WNW 26 33 14 18 1019.6 1019.6 0.0
29/09:00am 10.8 - - - - WNW 22 26 12 14 1019.3 1019.3 0.0
29/08:30am 10.9 - - - - WNW 28 33 15 18 1018.7 1018.7 0.0
29/08:00am 11.3 - - - - NW 22 28 12 15 1018.8 1018.8 0.0
29/07:30am 10.7 - - - - NW 15 19 8 10 1018.7 1018.7 0.0
29/07:00am 10.6 - - - - NW 15 19 8 10 1018.3 1018.3 0.0
29/06:30am 11.0 - - - - NNW 20 24 11 13 1017.9 1017.9 0.0
29/06:00am 11.0 - - - - NNW 19 22 10 12 1017.7 1017.7 0.0
29/05:30am 11.1 - - - - NNW 15 19 8 10 1017.6 1017.6 0.0
29/05:00am 11.0 - - - - NNW 20 24 11 13 1017.2 1017.2 0.0
29/04:30am 11.5 - - - - N 22 26 12 14 1016.8 1016.8 0.0
29/04:00am 11.4 - - - - N 26 30 14 16 1016.2 1016.2 0.0
29/03:30am 11.5 - - - - N 24 28 13 15 1016.1 1016.1 0.0
29/03:00am 11.6 - - - - NNW 22 32 12 17 1015.9 1015.9 0.0
29/02:30am 11.7 - - - - NNW 26 32 14 17 1015.6 1015.6 0.0
29/02:00am 11.8 - - - - NNW 32 35 17 19 1015.5 1015.5 0.0
29/01:30am 11.7 - - - - N 30 35 16 19 1015.4 1015.4 0.0
29/01:00am 11.7 - - - - N 24 30 13 16 1015.4 1015.4 0.0
29/12:30am 11.8 - - - - NNW 32 39 17 21 1015.1 1015.1 0.0
29/12:00am 11.9 - - - - NNW 35 39 19 21 1015.0 1015.0 0.0
 
Date/Time
EST
Temp
°C
App
Temp
°C
Dew
Point
°C
Rel
Hum
%
Delta-T
°C
Wind Press
QNH
hPa
Press
MSL
hPa
Rain since
9am
mm
Dir  Spd
km/h
Gust
km/h
Spd
kts
Gust
kts
28/11:30pm 11.9 - - - - NNW 32 37 17 20 1015.2 1015.2 0.0
28/11:00pm 11.7 - - - - N 28 32 15 17 1015.3 1015.3 0.0
28/10:30pm 11.9 - - - - NNW 26 30 14 16 1015.3 1015.3 0.0
28/10:00pm 11.9 - - - - N 26 32 14 17 1015.4 1015.4 0.0
28/09:30pm 12.1 - - - - NNW 28 33 15 18 1015.4 1015.4 0.0
28/09:00pm 12.4 - - - - NNW 28 33 15 18 1015.2 1015.2 0.0
28/08:30pm 12.5 - - - - NNW 30 35 16 19 1014.9 1014.9 0.0
28/08:00pm 12.6 - - - - NNW 28 32 15 17 1015.0 1015.0 0.0
28/07:30pm 13.2 - - - - NNW 24 30 13 16 1014.8 1014.8 0.0
28/07:00pm 13.5 - - - - NW 26 30 14 16 1014.6 1014.6 0.0
28/06:30pm 13.4 - - - - NNW 24 30 13 16 1014.5 1014.5 0.0
28/06:00pm 13.7 - - - - NNW 24 28 13 15 1014.5 1014.5 0.0
28/05:30pm 13.5 - - - - NNW 22 26 12 14 1014.1 1014.1 0.0
28/05:00pm 13.9 - - - - NW 24 30 13 16 1013.8 1013.8 0.0
28/04:30pm 13.4 - - - - NNW 15 19 8 10 1013.7 1013.7 0.0
28/04:00pm 14.0 - - - - NNW 15 20 8 11 1013.6 1013.6 0.0
28/03:30pm 13.9 - - - - N 20 26 11 14 1013.3 1013.3 0.0
28/03:00pm 13.7 - - - - N 22 26 12 14 1013.4 1013.4 0.0
28/02:30pm 13.8 - - - - N 22 28 12 15 1013.2 1013.2 0.0
28/02:00pm 13.2 - - - - NNW 24 30 13 16 1013.1 1013.1 0.0
28/01:30pm 12.9 - - - - NNW 30 39 16 21 1012.8 1012.8 0.0
28/01:00pm 12.7 - - - - NNW 28 35 15 19 1012.8 1012.8 0.0
28/12:30pm 12.4 - - - - NNW 24 30 13 16 1013.0 1013.0 0.0
28/12:00pm 11.9 - - - - N 24 28 13 15 1013.1 1013.1 0.0
28/11:30am 11.7 - - - - N 24 28 13 15 1013.3 1013.3 0.0
28/11:00am 11.3 - - - - N 17 20 9 11 1013.4 1013.4 0.0
28/10:30am 11.3 - - - - NNW 28 33 15 18 1013.3 1013.3 0.0
28/10:21am 11.5 - - - - NW 28 33 15 18 1013.3 1013.3 0.0
28/10:00am 10.5 - - - - WNW 11 15 6 8 1013.5 1013.5 0.0
28/09:30am 10.7 - - - - NNW 32 39 17 21 1012.9 1012.9 0.0
28/09:00am 10.1 - - - - NW 20 32 11 17 1013.1 1013.1 0.0
28/08:30am 10.6 - - - - NNW 28 35 15 19 1012.7 1012.7 0.0
28/08:00am 10.3 - - - - NW 26 35 14 19 1012.6 1012.6 0.0
28/07:30am 10.0 - - - - N 22 28 12 15 1012.5 1012.5 0.0
28/07:00am 10.1 - - - - NNW 20 32 11 17 1012.1 1012.1 0.0
28/06:30am 9.7 - - - - N 19 24 10 13 1012.2 1012.2 0.0
28/06:00am 9.6 - - - - N 19 30 10 16 1011.7 1011.7 0.0
28/05:30am 9.5 - - - - N 30 35 16 19 1011.2 1011.2 0.0
28/05:00am 9.7 - - - - NNW 20 28 11 15 1011.4 1011.4 0.0
28/04:30am 9.5 - - - - NNW 33 41 18 22 1010.8 1010.8 0.0
28/04:00am 9.5 - - - - NNW 32 39 17 21 1010.6 1010.6 0.0
28/03:30am 9.3 - - - - NNW 28 32 15 17 1011.0 1011.0 0.0
28/03:00am 9.5 - - - - NNW 24 30 13 16 1011.4 1011.4 0.0
28/02:30am 9.0 - - - - N 30 35 16 19 1011.3 1011.3 0.0
28/02:00am 9.1 - - - - N 32 37 17 20 1011.2 1011.2 0.0
28/01:30am 9.2 - - - - N 32 37 17 20 1011.0 1011.0 0.0
28/01:00am 9.2 - - - - N 33 43 18 23 1010.9 1010.9 0.0
28/12:30am 9.2 - - - - N 33 37 18 20 1011.3 1011.3 0.0
28/12:00am 9.6 - - - - N 28 35 15 19 1011.3 1011.3 0.0
 
Date/Time
EST
Temp
°C
App
Temp
°C
Dew
Point
°C
Rel
Hum
%
Delta-T
°C
Wind Press
QNH
hPa
Press
MSL
hPa
Rain since
9am
mm
Dir  Spd
km/h
Gust
km/h
Spd
kts
Gust
kts
27/11:30pm 9.8 - - - - N 24 32 13 17 1011.7 1011.7 0.0
27/11:00pm 9.9 - - - - N 26 32 14 17 1011.7 1011.7 0.0
27/10:30pm 10.0 - - - - N 26 32 14 17 1011.7 1011.7 0.0
27/10:00pm 10.0 - - - - NNW 24 30 13 16 1011.8 1011.8 0.0
27/09:30pm 9.9 - - - - N 19 26 10 14 1011.8 1011.8 0.0
27/09:00pm 9.6 - - - - NNW 20 24 11 13 1012.2 1012.2 0.0
27/08:30pm 9.8 - - - - NW 22 30 12 16 1011.9 1011.9 0.0
27/08:00pm 10.2 - - - - NW 24 33 13 18 1011.9 1011.9 0.0
27/07:30pm 10.1 - - - - NNW 22 28 12 15 1012.0 1012.0 0.0
27/07:00pm 10.0 - - - - NNW 20 26 11 14 1012.0 1012.0 0.0

Other Formats:

Comma delimited format used in spreadsheet applications
http://www.bom.gov.au/fwo/IDT60801/IDT60801.95988.axf

JavaScript Object Notation format (JSON) in row-major order
http://www.bom.gov.au/fwo/IDT60801/IDT60801.95988.json